createdAt,value
2023-03-05T00:00:05.517Z,99.90
2023-03-05T00:01:22.892Z,99.90
2023-03-05T00:02:25.274Z,99.90
2023-03-05T00:03:27.704Z,99.90
2023-03-05T00:04:29.968Z,99.90
2023-03-05T00:05:34.332Z,99.90
2023-03-05T00:06:36.714Z,99.90
2023-03-05T00:07:38.963Z,99.90
2023-03-05T00:08:41.313Z,99.90
2023-03-05T00:09:43.609Z,99.90
2023-03-05T00:10:45.846Z,99.90
2023-03-05T00:11:48.151Z,99.90
2023-03-05T00:12:50.421Z,99.90
2023-03-05T00:13:53.070Z,99.90
2023-03-05T00:14:55.355Z,99.90
2023-03-05T00:15:57.625Z,99.90
2023-03-05T00:17:00.135Z,99.90
2023-03-05T00:18:02.384Z,99.90
2023-03-05T00:19:05.413Z,99.90
2023-03-05T00:20:08.497Z,99.90
2023-03-05T00:21:43.476Z,99.90
2023-03-05T00:22:45.829Z,99.90
2023-03-05T00:23:48.251Z,99.90
2023-03-05T00:24:51.597Z,99.90
2023-03-05T00:25:53.937Z,99.90
2023-03-05T00:26:56.303Z,99.90
2023-03-05T00:27:58.552Z,99.90
2023-03-05T00:29:01.060Z,99.90
2023-03-05T00:30:03.389Z,99.90
2023-03-05T00:31:05.927Z,99.90
2023-03-05T00:32:08.461Z,99.90
2023-03-05T00:33:12.552Z,99.90
2023-03-05T00:34:16.947Z,99.90
2023-03-05T00:35:19.296Z,99.90
2023-03-05T00:36:24.490Z,99.90
2023-03-05T00:37:26.850Z,99.90
2023-03-05T00:38:30.193Z,99.90
2023-03-05T00:39:32.447Z,99.90
2023-03-05T00:40:39.437Z,99.90
2023-03-05T00:41:41.751Z,99.90
2023-03-05T00:42:44.202Z,99.90
2023-03-05T00:43:47.224Z,99.90
2023-03-05T00:44:49.457Z,99.90
2023-03-05T00:45:51.741Z,99.90
2023-03-05T00:46:54.099Z,99.90
2023-03-05T00:47:56.364Z,99.90
2023-03-05T00:48:58.615Z,99.90
2023-03-05T00:50:01.028Z,99.90
2023-03-05T00:51:03.659Z,99.90
2023-03-05T00:52:05.908Z,99.90
2023-03-05T00:53:08.223Z,99.90
2023-03-05T00:54:10.708Z,99.90
2023-03-05T00:55:12.984Z,99.90
2023-03-05T00:56:15.615Z,99.90
2023-03-05T00:57:18.247Z,99.90
2023-03-05T00:58:20.578Z,99.90
2023-03-05T00:59:22.833Z,99.90
2023-03-05T01:00:25.218Z,99.90
2023-03-05T01:01:29.229Z,99.90
2023-03-05T01:02:33.770Z,99.90
2023-03-05T01:03:37.035Z,99.90
2023-03-05T01:04:39.331Z,99.90
2023-03-05T01:05:41.596Z,99.90
2023-03-05T01:06:46.206Z,99.90
2023-03-05T01:07:53.775Z,99.90
2023-03-05T01:08:56.725Z,99.90
2023-03-05T01:09:59.262Z,99.90
2023-03-05T01:11:01.836Z,99.90
2023-03-05T01:12:04.437Z,99.90
2023-03-05T01:13:06.714Z,99.90
2023-03-05T01:14:09.249Z,99.90
2023-03-05T01:15:11.663Z,99.90
2023-03-05T01:16:15.736Z,99.90
2023-03-05T01:17:18.037Z,99.90
2023-03-05T01:18:23.219Z,99.90
2023-03-05T01:19:25.548Z,99.90
2023-03-05T01:20:27.953Z,99.90
2023-03-05T01:21:30.484Z,99.90
2023-03-05T01:22:32.915Z,99.90
2023-03-05T01:23:37.348Z,99.90
2023-03-05T01:24:39.629Z,99.90
2023-03-05T01:25:41.930Z,99.90
2023-03-05T01:26:44.758Z,99.90
2023-03-05T01:27:47.204Z,99.90
2023-03-05T01:28:49.485Z,99.90
2023-03-05T01:29:51.766Z,99.90
2023-03-05T01:30:54.110Z,99.90
2023-03-05T01:31:56.401Z,99.90
2023-03-05T01:32:59.057Z,99.90
2023-03-05T01:34:01.343Z,99.90
2023-03-05T01:35:05.855Z,99.90
2023-03-05T01:36:14.966Z,99.90
2023-03-05T01:37:17.268Z,99.90
2023-03-05T01:38:19.607Z,99.90
2023-03-05T01:39:21.904Z,99.90
2023-03-05T01:40:27.027Z,99.90
2023-03-05T01:41:29.324Z,99.80
2023-03-05T01:42:31.605Z,99.80
2023-03-05T01:43:34.005Z,99.90
2023-03-05T01:44:36.321Z,99.60
2023-03-05T01:45:57.984Z,99.40
2023-03-05T01:47:00.597Z,99.40
2023-03-05T01:48:02.985Z,99.10
2023-03-05T01:49:05.183Z,99.00
2023-03-05T01:50:11.544Z,99.00
2023-03-05T01:51:15.738Z,98.60
2023-03-05T01:52:21.975Z,98.60
2023-03-05T01:53:24.246Z,98.30
2023-03-05T01:54:36.802Z,98.30
2023-03-05T01:55:39.404Z,98.20
2023-03-05T01:56:42.118Z,98.40
2023-03-05T01:57:55.258Z,98.40
2023-03-05T01:59:03.556Z,98.30
2023-03-05T02:00:35.087Z,98.20
2023-03-05T02:01:43.174Z,98.00
2023-03-05T02:02:49.094Z,97.90
2023-03-05T02:03:51.805Z,97.90
2023-03-05T02:05:04.936Z,97.90
2023-03-05T02:06:07.400Z,98.30
2023-03-05T02:07:10.819Z,98.00
2023-03-05T02:08:19.280Z,97.90
2023-03-05T02:09:23.966Z,97.80
2023-03-05T02:10:29.846Z,97.90
2023-03-05T02:11:33.632Z,97.90
2023-03-05T02:12:35.950Z,97.50
2023-03-05T02:13:40.730Z,97.40
2023-03-05T02:14:46.976Z,97.70
2023-03-05T02:15:50.060Z,97.30
2023-03-05T02:16:52.637Z,96.90
2023-03-05T02:17:54.999Z,97.00
2023-03-05T02:18:57.341Z,97.10
2023-03-05T02:20:09.558Z,96.80
2023-03-05T02:21:12.007Z,97.10
2023-03-05T02:22:21.937Z,97.20
2023-03-05T02:23:32.784Z,97.10
2023-03-05T02:24:37.230Z,96.80
2023-03-05T02:25:39.652Z,96.80
2023-03-05T02:26:44.761Z,96.90
2023-03-05T02:27:55.095Z,97.00
2023-03-05T02:29:02.673Z,97.00
2023-03-05T02:30:05.553Z,97.00
2023-03-05T02:31:15.907Z,96.90
2023-03-05T02:32:18.211Z,96.80
2023-03-05T02:33:21.968Z,96.80
2023-03-05T02:34:24.665Z,96.80
2023-03-05T02:35:27.213Z,96.90
2023-03-05T02:36:29.619Z,96.90
2023-03-05T02:37:31.938Z,96.90
2023-03-05T02:38:34.253Z,97.00
2023-03-05T02:39:36.826Z,97.00
2023-03-05T02:40:39.342Z,97.00
2023-03-05T02:41:41.839Z,97.00
2023-03-05T02:42:44.356Z,97.00
2023-03-05T02:43:48.244Z,96.90
2023-03-05T02:44:50.523Z,96.90
2023-03-05T02:45:52.882Z,96.90
2023-03-05T02:46:56.098Z,97.00
2023-03-05T02:47:58.506Z,97.00
2023-03-05T02:49:00.867Z,97.00
2023-03-05T02:50:04.394Z,96.90
2023-03-05T02:51:07.560Z,96.90
2023-03-05T02:52:09.829Z,97.00
2023-03-05T02:53:12.114Z,97.00
2023-03-05T02:54:14.927Z,97.00
2023-03-05T02:55:17.360Z,97.00
2023-03-05T02:56:19.950Z,97.10
2023-03-05T02:57:22.308Z,97.20
2023-03-05T02:58:24.810Z,97.30
2023-03-05T02:59:27.597Z,97.40
2023-03-05T03:00:30.360Z,97.50
2023-03-05T03:01:32.652Z,97.60
2023-03-05T03:02:35.252Z,97.60
2023-03-05T03:03:37.774Z,97.70
2023-03-05T03:04:40.372Z,97.70
2023-03-05T03:05:42.650Z,97.80
2023-03-05T03:06:44.923Z,97.80
2023-03-05T03:07:47.130Z,97.90
2023-03-05T03:08:49.433Z,97.90
2023-03-05T03:09:51.823Z,97.90
2023-03-05T03:10:56.444Z,98.00
2023-03-05T03:11:58.721Z,98.00
2023-03-05T03:13:01.006Z,98.00
2023-03-05T03:14:03.493Z,98.00
2023-03-05T03:15:07.711Z,98.10
2023-03-05T03:16:14.808Z,98.10
2023-03-05T03:17:19.213Z,98.10
2023-03-05T03:18:21.472Z,98.10
2023-03-05T03:19:23.689Z,98.10
2023-03-05T03:20:26.722Z,98.10
2023-03-05T03:21:29.053Z,98.20
2023-03-05T03:22:31.525Z,98.20
2023-03-05T03:23:34.702Z,98.30
2023-03-05T03:24:38.650Z,98.30
2023-03-05T03:25:40.874Z,98.30
2023-03-05T03:26:43.153Z,98.30
2023-03-05T03:27:45.574Z,98.30
2023-03-05T03:28:47.891Z,98.30
2023-03-05T03:29:50.148Z,98.40
2023-03-05T03:30:52.482Z,98.30
2023-03-05T03:31:54.797Z,98.40
2023-03-05T03:32:57.030Z,98.60
2023-03-05T03:33:59.297Z,98.30
2023-03-05T03:35:01.660Z,98.30
2023-03-05T03:36:05.534Z,98.40
2023-03-05T03:37:09.126Z,98.40
2023-03-05T03:38:12.612Z,98.50
2023-03-05T03:39:15.198Z,98.60
2023-03-05T03:40:17.663Z,98.70
2023-03-05T03:41:20.017Z,98.70
2023-03-05T03:42:23.534Z,98.80
2023-03-05T03:43:25.865Z,98.80
2023-03-05T03:44:28.163Z,98.90
2023-03-05T03:45:30.444Z,99.00
2023-03-05T03:46:33.269Z,99.00
2023-03-05T03:47:35.529Z,99.20
2023-03-05T03:48:38.198Z,99.30
2023-03-05T03:49:40.720Z,99.40
2023-03-05T03:50:43.810Z,99.50
2023-03-05T03:51:47.434Z,99.60
2023-03-05T03:52:49.752Z,99.70
2023-03-05T03:53:52.037Z,99.80
2023-03-05T03:54:57.741Z,99.90
2023-03-05T03:56:00.116Z,99.90
2023-03-05T03:57:02.390Z,99.90
2023-03-05T03:58:04.745Z,99.90
2023-03-05T03:59:07.286Z,99.90
2023-03-05T04:00:11.473Z,99.90
2023-03-05T04:01:17.407Z,99.90
2023-03-05T04:02:19.809Z,99.90
2023-03-05T04:03:22.129Z,99.90
2023-03-05T04:04:26.494Z,99.90
2023-03-05T04:05:28.964Z,99.90
2023-03-05T04:06:31.594Z,99.90
2023-03-05T04:07:33.902Z,99.90
2023-03-05T04:08:36.795Z,99.90
2023-03-05T04:09:39.242Z,99.90
2023-03-05T04:10:41.529Z,99.90
2023-03-05T04:11:43.797Z,99.90
2023-03-05T04:12:46.408Z,99.90
2023-03-05T04:13:49.166Z,99.90
2023-03-05T04:14:51.573Z,99.90
2023-03-05T04:15:54.296Z,99.90
2023-03-05T04:16:56.674Z,99.90
2023-03-05T04:17:59.062Z,99.90
2023-03-05T04:19:01.330Z,99.90
2023-03-05T04:20:05.883Z,99.90
2023-03-05T04:21:08.512Z,99.90
2023-03-05T04:22:13.168Z,99.90
2023-03-05T04:23:15.887Z,99.90
2023-03-05T04:24:18.134Z,99.90
2023-03-05T04:25:20.484Z,99.90
2023-03-05T04:26:26.290Z,99.90
2023-03-05T04:27:28.570Z,99.90
2023-03-05T04:28:31.057Z,99.90
2023-03-05T04:29:34.188Z,99.90
2023-03-05T04:30:37.256Z,99.90
2023-03-05T04:31:39.481Z,99.90
2023-03-05T04:32:41.989Z,99.90
2023-03-05T04:33:44.240Z,99.90
2023-03-05T04:34:46.595Z,99.90
2023-03-05T04:35:48.932Z,99.90
2023-03-05T04:36:51.191Z,99.90
2023-03-05T04:37:53.791Z,99.90
2023-03-05T04:38:56.072Z,99.90
2023-03-05T04:39:58.373Z,99.90
2023-03-05T04:41:00.686Z,99.90
2023-03-05T04:42:03.055Z,99.90
2023-03-05T04:43:05.773Z,99.90
2023-03-05T04:44:08.030Z,99.90
2023-03-05T04:45:11.216Z,99.90
2023-03-05T04:46:13.531Z,99.90
2023-03-05T04:47:16.747Z,99.90
2023-03-05T04:48:19.102Z,99.90
2023-03-05T04:49:21.399Z,99.90
2023-03-05T04:50:23.787Z,99.90
2023-03-05T04:51:26.126Z,99.90
2023-03-05T04:52:28.442Z,99.90
2023-03-05T04:53:30.725Z,99.90
2023-03-05T04:54:33.161Z,99.90
2023-03-05T04:55:35.427Z,99.90
2023-03-05T04:56:37.751Z,99.90
2023-03-05T04:57:40.476Z,99.90
2023-03-05T04:58:42.710Z,99.90
2023-03-05T04:59:44.990Z,99.90
2023-03-05T05:00:47.337Z,99.90
2023-03-05T05:01:49.671Z,99.90
2023-03-05T05:02:52.629Z,99.90
2023-03-05T05:03:54.923Z,99.90
2023-03-05T05:04:57.209Z,99.90
2023-03-05T05:06:00.478Z,99.90
2023-03-05T05:07:03.158Z,99.90
2023-03-05T05:08:05.789Z,99.90
2023-03-05T05:09:08.125Z,99.90
2023-03-05T05:10:11.732Z,99.90
2023-03-05T05:11:15.179Z,99.90
2023-03-05T05:12:17.672Z,99.90
2023-03-05T05:13:19.897Z,99.90
2023-03-05T05:14:22.566Z,99.90
2023-03-05T05:15:25.058Z,99.90
2023-03-05T05:16:27.426Z,99.90
2023-03-05T05:17:32.919Z,99.90
2023-03-05T05:18:35.528Z,99.90
2023-03-05T05:19:37.801Z,99.90
2023-03-05T05:20:40.144Z,99.90
2023-03-05T05:21:42.589Z,99.90
2023-03-05T05:22:44.842Z,99.90
2023-03-05T05:23:47.197Z,99.90
2023-03-05T05:24:49.487Z,99.90
2023-03-05T05:26:02.223Z,99.90
2023-03-05T05:27:04.446Z,99.90
2023-03-05T05:28:07.033Z,99.90
2023-03-05T05:29:09.273Z,99.90
2023-03-05T05:30:12.079Z,99.90
2023-03-05T05:31:16.404Z,99.90
2023-03-05T05:32:21.012Z,99.90
2023-03-05T05:33:24.087Z,99.90
2023-03-05T05:34:27.405Z,99.90
2023-03-05T05:35:29.931Z,99.90
2023-03-05T05:36:32.260Z,99.90
2023-03-05T05:37:34.792Z,99.90
2023-03-05T05:38:37.226Z,99.90
2023-03-05T05:39:39.607Z,99.90
2023-03-05T05:40:42.560Z,99.90
2023-03-05T05:41:45.091Z,99.90
2023-03-05T05:42:47.335Z,99.90
2023-03-05T05:43:50.209Z,99.90
2023-03-05T05:44:52.480Z,99.90
2023-03-05T05:45:54.808Z,99.90
2023-03-05T05:46:57.206Z,99.90
2023-03-05T05:47:59.455Z,99.90
2023-03-05T05:49:01.840Z,99.90
2023-03-05T05:50:05.426Z,99.90
2023-03-05T05:51:10.093Z,99.90
2023-03-05T05:52:13.275Z,99.90
2023-03-05T05:53:15.710Z,99.90
2023-03-05T05:54:18.011Z,99.90
2023-03-05T05:55:20.489Z,99.90
2023-03-05T05:56:22.732Z,99.90
2023-03-05T05:57:25.174Z,99.90
2023-03-05T05:58:27.467Z,99.90
2023-03-05T05:59:29.829Z,99.90
2023-03-05T06:00:32.143Z,99.90
2023-03-05T06:01:35.466Z,99.90
2023-03-05T06:02:39.870Z,99.90
2023-03-05T06:03:42.181Z,99.90
2023-03-05T06:04:44.433Z,99.90
2023-03-05T06:05:47.689Z,99.90
2023-03-05T06:06:49.955Z,99.90
2023-03-05T06:07:52.210Z,99.90
2023-03-05T06:08:54.855Z,99.90
2023-03-05T06:09:57.372Z,99.90
2023-03-05T06:10:59.633Z,99.90
2023-03-05T06:12:02.071Z,99.90
2023-03-05T06:13:04.858Z,99.90
2023-03-05T06:14:08.756Z,99.90
2023-03-05T06:15:11.354Z,99.90
2023-03-05T06:16:20.644Z,99.90
2023-03-05T06:17:30.301Z,99.90
2023-03-05T06:18:34.532Z,99.90
2023-03-05T06:19:36.775Z,99.90
2023-03-05T06:20:39.044Z,99.90
2023-03-05T06:21:43.395Z,99.90
2023-03-05T06:22:45.672Z,99.90
2023-03-05T06:23:49.188Z,99.90
2023-03-05T06:24:51.521Z,99.90
2023-03-05T06:25:54.829Z,99.90
2023-03-05T06:26:57.074Z,99.90
2023-03-05T06:27:59.385Z,99.90
2023-03-05T06:29:02.014Z,99.90
2023-03-05T06:30:05.671Z,99.90
2023-03-05T06:31:14.343Z,99.90
2023-03-05T06:32:17.421Z,99.90
2023-03-05T06:33:20.529Z,99.90
2023-03-05T06:34:23.131Z,99.90
2023-03-05T06:35:25.416Z,99.90
2023-03-05T06:36:28.442Z,99.90
2023-03-05T06:37:30.736Z,99.90
2023-03-05T06:38:33.468Z,99.90
2023-03-05T06:39:36.077Z,99.90
2023-03-05T06:40:39.978Z,99.90
2023-03-05T06:41:42.661Z,99.90
2023-03-05T06:42:44.914Z,99.90
2023-03-05T06:43:48.176Z,99.90
2023-03-05T06:44:50.538Z,99.90
2023-03-05T06:46:12.714Z,99.90
2023-03-05T06:47:16.976Z,99.90
2023-03-05T06:48:19.223Z,99.90
2023-03-05T06:49:21.570Z,99.90
2023-03-05T06:50:23.839Z,99.90
2023-03-05T06:51:34.817Z,99.90
2023-03-05T06:52:38.858Z,99.90
2023-03-05T06:53:41.284Z,99.90
2023-03-05T06:54:43.559Z,99.90
2023-03-05T06:55:45.893Z,99.90
2023-03-05T06:56:48.181Z,99.90
2023-03-05T06:57:50.451Z,99.90
2023-03-05T06:58:53.028Z,99.90
2023-03-05T06:59:55.379Z,99.90
2023-03-05T07:00:57.687Z,99.90
2023-03-05T07:01:59.980Z,99.90
2023-03-05T07:03:02.355Z,99.90
2023-03-05T07:04:04.956Z,99.90
2023-03-05T07:05:07.942Z,99.90
2023-03-05T07:06:14.942Z,99.90
2023-03-05T07:07:17.173Z,99.90
2023-03-05T07:08:19.503Z,99.90
2023-03-05T07:09:21.748Z,99.90
2023-03-05T07:10:24.092Z,99.90
2023-03-05T07:11:26.460Z,99.90
2023-03-05T07:12:28.766Z,99.90
2023-03-05T07:13:31.080Z,99.90
2023-03-05T07:14:33.326Z,99.90
2023-03-05T07:15:39.388Z,99.90
2023-03-05T07:16:41.853Z,99.90
2023-03-05T07:17:44.098Z,99.90
2023-03-05T07:18:46.473Z,99.90
2023-03-05T07:19:48.768Z,99.90
2023-03-05T07:20:50.990Z,99.90
2023-03-05T07:21:53.296Z,99.90
2023-03-05T07:22:55.930Z,99.90
2023-03-05T07:24:00.413Z,99.90
2023-03-05T07:25:02.733Z,99.90
2023-03-05T07:26:06.720Z,99.90
2023-03-05T07:27:09.099Z,99.90
2023-03-05T07:28:11.414Z,99.90
2023-03-05T07:29:13.680Z,99.90
2023-03-05T07:30:16.080Z,99.90
2023-03-05T07:31:20.981Z,99.90
2023-03-05T07:32:23.351Z,99.90
2023-03-05T07:33:26.101Z,99.90
2023-03-05T07:34:28.350Z,99.90
2023-03-05T07:35:30.670Z,99.90
2023-03-05T07:36:34.961Z,99.90
2023-03-05T07:37:37.410Z,99.90
2023-03-05T07:38:40.436Z,99.90
2023-03-05T07:39:42.738Z,99.90
2023-03-05T07:40:45.012Z,99.90
2023-03-05T07:41:47.885Z,99.90
2023-03-05T07:42:50.534Z,99.90
2023-03-05T07:44:03.378Z,99.90
2023-03-05T07:45:06.932Z,99.90
2023-03-05T07:46:13.061Z,99.90
2023-03-05T07:47:17.096Z,99.90
2023-03-05T07:48:22.700Z,99.90
2023-03-05T07:49:25.021Z,99.90
2023-03-05T07:50:27.358Z,99.50
2023-03-05T07:51:30.719Z,99.40
2023-03-05T07:52:32.980Z,99.50
2023-03-05T07:53:35.238Z,99.10
2023-03-05T07:54:41.154Z,99.10
2023-03-05T07:55:47.422Z,99.20
2023-03-05T07:56:49.777Z,99.00
2023-03-05T07:57:53.144Z,99.10
2023-03-05T07:58:55.421Z,98.90
2023-03-05T07:59:57.852Z,98.90
2023-03-05T08:01:00.151Z,98.80
2023-03-05T08:02:02.455Z,98.30
2023-03-05T08:03:04.827Z,98.20
2023-03-05T08:04:10.783Z,98.10
2023-03-05T08:05:13.459Z,97.90
2023-03-05T08:06:16.554Z,96.70
2023-03-05T08:07:18.865Z,96.90
2023-03-05T08:08:21.258Z,97.00
2023-03-05T08:09:23.532Z,96.80
2023-03-05T08:10:25.955Z,96.20
2023-03-05T08:11:28.822Z,96.10
2023-03-05T08:12:31.191Z,96.00
2023-03-05T08:13:33.903Z,95.30
2023-03-05T08:14:36.666Z,95.20
2023-03-05T08:15:39.020Z,95.40
2023-03-05T08:16:41.581Z,95.60
2023-03-05T08:17:43.930Z,95.10
2023-03-05T08:18:47.313Z,95.10
2023-03-05T08:19:49.542Z,95.00
2023-03-05T08:20:51.935Z,94.90
2023-03-05T08:21:55.632Z,94.90
2023-03-05T08:22:57.974Z,94.90
2023-03-05T08:24:03.216Z,95.00
2023-03-05T08:25:06.533Z,94.60
2023-03-05T08:26:13.256Z,94.50
2023-03-05T08:27:15.508Z,94.30
2023-03-05T08:28:19.757Z,94.30
2023-03-05T08:29:22.448Z,93.70
2023-03-05T08:30:27.636Z,93.40
2023-03-05T08:31:30.596Z,93.20
2023-03-05T08:32:32.989Z,93.00
2023-03-05T08:33:35.472Z,93.10
2023-03-05T08:34:37.784Z,93.50
2023-03-05T08:35:40.277Z,93.80
2023-03-05T08:36:42.583Z,93.80
2023-03-05T08:37:44.820Z,93.60
2023-03-05T08:38:48.576Z,93.80
2023-03-05T08:39:51.140Z,93.90
2023-03-05T08:40:53.460Z,93.70
2023-03-05T08:41:55.804Z,93.60
2023-03-05T08:42:59.914Z,93.70
2023-03-05T08:44:02.280Z,93.90
2023-03-05T08:45:04.844Z,94.00
2023-03-05T08:46:07.602Z,94.00
2023-03-05T08:47:09.869Z,94.00
2023-03-05T08:48:12.201Z,94.10
2023-03-05T08:49:14.455Z,94.30
2023-03-05T08:50:17.985Z,94.50
2023-03-05T08:51:25.837Z,94.70
2023-03-05T08:52:28.198Z,94.80
2023-03-05T08:53:30.480Z,94.90
2023-03-05T08:54:34.094Z,95.00
2023-03-05T08:55:37.506Z,95.10
2023-03-05T08:56:39.893Z,95.00
2023-03-05T08:57:42.336Z,95.10
2023-03-05T08:58:46.182Z,94.40
2023-03-05T08:59:48.653Z,94.40
2023-03-05T09:00:51.253Z,94.30
2023-03-05T09:01:53.624Z,94.00
2023-03-05T09:02:56.081Z,93.30
2023-03-05T09:03:59.902Z,93.20
2023-03-05T09:05:02.558Z,92.60
2023-03-05T09:06:08.518Z,91.90
2023-03-05T09:07:11.439Z,90.00
2023-03-05T09:08:14.276Z,90.00
2023-03-05T09:09:16.743Z,90.10
2023-03-05T09:10:19.301Z,90.40
2023-03-05T09:11:22.001Z,90.50
2023-03-05T09:12:24.740Z,90.70
2023-03-05T09:13:27.086Z,90.80
2023-03-05T09:14:29.936Z,90.80
2023-03-05T09:15:32.235Z,90.50
2023-03-05T09:16:36.308Z,90.30
2023-03-05T09:17:41.745Z,89.90
2023-03-05T09:18:44.359Z,88.00
2023-03-05T09:19:46.620Z,87.00
2023-03-05T09:20:49.008Z,86.90
2023-03-05T09:21:51.376Z,87.30
2023-03-05T09:22:53.816Z,87.40
2023-03-05T09:23:59.670Z,87.50
2023-03-05T09:25:01.974Z,87.10
2023-03-05T09:26:09.322Z,87.00
2023-03-05T09:27:11.628Z,86.90
2023-03-05T09:28:13.900Z,86.50
2023-03-05T09:29:16.203Z,86.30
2023-03-05T09:30:18.831Z,86.50
2023-03-05T09:31:21.291Z,87.00
2023-03-05T09:32:23.579Z,86.10
2023-03-05T09:33:25.912Z,84.10
2023-03-05T09:34:28.234Z,84.70
2023-03-05T09:35:31.149Z,85.60
2023-03-05T09:36:33.881Z,86.20
2023-03-05T09:37:36.679Z,86.60
2023-03-05T09:38:40.824Z,87.10
2023-03-05T09:39:43.127Z,86.80
2023-03-05T09:40:47.906Z,86.70
2023-03-05T09:42:23.089Z,84.70
2023-03-05T09:43:56.221Z,84.50
2023-03-05T09:45:06.905Z,83.90
2023-03-05T09:46:29.216Z,80.40
2023-03-05T09:47:36.946Z,81.60
2023-03-05T09:48:51.855Z,82.60
2023-03-05T09:50:18.644Z,83.40
2023-03-05T09:51:31.534Z,84.20
2023-03-05T09:52:45.572Z,83.00
2023-03-05T09:53:49.488Z,82.70
2023-03-05T09:54:56.766Z,80.30
2023-03-05T09:56:04.309Z,79.10
2023-03-05T09:57:18.676Z,78.70
2023-03-05T09:58:37.254Z,77.20
2023-03-05T09:59:46.662Z,77.40
2023-03-05T10:00:54.747Z,77.70
2023-03-05T10:02:01.537Z,77.90
2023-03-05T10:03:26.901Z,78.30
2023-03-05T10:04:44.254Z,78.10
2023-03-05T10:06:04.000Z,78.00
2023-03-05T10:07:12.851Z,77.80
2023-03-05T10:08:20.916Z,77.90
2023-03-05T10:09:45.724Z,78.60
2023-03-05T10:10:51.109Z,79.20
2023-03-05T10:12:10.986Z,79.40
2023-03-05T10:13:26.305Z,79.30
2023-03-05T10:14:35.088Z,78.40
2023-03-05T10:16:25.624Z,78.50
2023-03-05T10:17:50.921Z,78.10
2023-03-05T10:19:14.806Z,78.30
2023-03-05T10:20:41.306Z,79.50
2023-03-05T10:22:10.948Z,78.40
2023-03-05T10:23:33.508Z,79.40
2023-03-05T10:24:54.652Z,79.70
2023-03-05T10:26:05.881Z,79.70
2023-03-05T10:27:20.441Z,79.90
2023-03-05T10:28:27.448Z,79.70
2023-03-05T10:29:39.104Z,79.10
2023-03-05T10:31:02.486Z,78.40
2023-03-05T10:32:32.331Z,79.00
2023-03-05T10:33:54.906Z,79.10
2023-03-05T10:35:10.490Z,78.80
2023-03-05T10:36:34.538Z,77.70
2023-03-05T10:38:21.463Z,78.00
2023-03-05T10:39:35.462Z,78.90
2023-03-05T10:40:47.032Z,78.40
2023-03-05T10:42:26.889Z,77.70
2023-03-05T10:43:59.048Z,76.90
2023-03-05T10:45:13.977Z,76.60
2023-03-05T10:46:19.013Z,75.90
2023-03-05T10:47:33.985Z,76.20
2023-03-05T10:48:55.640Z,76.80
2023-03-05T10:49:59.211Z,77.10
2023-03-05T10:51:18.494Z,77.20
2023-03-05T10:52:33.359Z,77.60
2023-03-05T10:53:56.085Z,76.50
2023-03-05T10:54:58.351Z,75.90
2023-03-05T10:56:05.597Z,75.90
2023-03-05T10:57:16.991Z,76.30
2023-03-05T10:58:19.261Z,76.50
2023-03-05T10:59:21.489Z,76.60
2023-03-05T11:00:26.682Z,76.10
2023-03-05T11:01:31.439Z,76.00
2023-03-05T11:02:34.789Z,75.80
2023-03-05T11:03:54.133Z,75.70
2023-03-05T11:04:56.419Z,75.10
2023-03-05T11:06:01.708Z,75.20
2023-03-05T11:07:16.127Z,76.20
2023-03-05T11:08:34.727Z,77.00
2023-03-05T11:09:37.048Z,77.00
2023-03-05T11:10:39.277Z,76.80
2023-03-05T11:11:42.045Z,76.50
2023-03-05T11:12:45.643Z,75.90
2023-03-05T11:14:00.279Z,75.10
2023-03-05T11:15:05.627Z,75.00
2023-03-05T11:16:18.826Z,75.20
2023-03-05T11:17:32.940Z,75.30
2023-03-05T11:18:35.338Z,75.80
2023-03-05T11:19:39.626Z,76.10
2023-03-05T11:20:41.868Z,76.10
2023-03-05T11:21:46.460Z,75.90
2023-03-05T11:23:10.328Z,75.70
2023-03-05T11:24:14.132Z,75.70
2023-03-05T11:25:21.324Z,76.00
2023-03-05T11:26:23.621Z,76.20
2023-03-05T11:27:36.670Z,75.50
2023-03-05T11:28:41.992Z,74.80
2023-03-05T11:29:48.941Z,74.70
2023-03-05T11:31:01.514Z,75.30
2023-03-05T11:32:25.828Z,75.80
2023-03-05T11:33:29.770Z,76.50
2023-03-05T11:34:35.484Z,76.80
2023-03-05T11:35:41.999Z,75.50
2023-03-05T11:37:03.801Z,75.40
2023-03-05T11:38:14.965Z,76.00
2023-03-05T11:39:19.702Z,75.90
2023-03-05T11:40:25.197Z,75.80
2023-03-05T11:41:32.331Z,75.90
2023-03-05T11:42:34.800Z,75.60
2023-03-05T11:43:41.623Z,74.60
2023-03-05T11:44:53.729Z,74.30
2023-03-05T11:46:05.511Z,74.60
2023-03-05T11:47:32.068Z,74.50
2023-03-05T11:48:39.764Z,74.50
2023-03-05T11:49:46.521Z,74.90
2023-03-05T11:50:56.419Z,74.30
2023-03-05T11:52:12.890Z,74.20
2023-03-05T11:53:22.017Z,73.90
2023-03-05T11:54:49.197Z,74.30
2023-03-05T11:56:21.491Z,73.80
2023-03-05T11:57:24.740Z,74.10
2023-03-05T11:58:51.771Z,75.40
2023-03-05T11:59:58.468Z,75.90
2023-03-05T12:01:01.710Z,76.80
2023-03-05T12:02:13.503Z,76.10
2023-03-05T12:03:19.296Z,76.10
2023-03-05T12:04:22.587Z,76.50
2023-03-05T12:05:26.095Z,77.00
2023-03-05T12:06:45.876Z,77.20
2023-03-05T12:07:52.828Z,77.20
2023-03-05T12:08:58.026Z,77.50
2023-03-05T12:10:01.990Z,77.80
2023-03-05T12:11:28.771Z,78.20
2023-03-05T12:12:37.786Z,78.50
2023-03-05T12:13:51.868Z,78.40
2023-03-05T12:15:19.693Z,78.50
2023-03-05T12:16:45.201Z,78.20
2023-03-05T12:18:08.531Z,78.20
2023-03-05T12:19:38.871Z,77.50
2023-03-05T12:21:18.415Z,77.40
2023-03-05T12:22:23.658Z,76.40
2023-03-05T12:23:28.080Z,76.20
2023-03-05T12:24:30.326Z,74.30
2023-03-05T12:25:35.363Z,74.70
2023-03-05T12:26:59.487Z,75.30
2023-03-05T12:28:02.254Z,75.60
2023-03-05T12:29:04.568Z,75.00
2023-03-05T12:30:35.808Z,74.60
2023-03-05T12:31:39.596Z,74.40
2023-03-05T12:33:00.685Z,74.20
2023-03-05T12:34:41.762Z,74.10
2023-03-05T12:35:44.140Z,74.00
2023-03-05T12:36:46.488Z,72.80
2023-03-05T12:37:48.887Z,72.40
2023-03-05T12:38:53.087Z,71.30
2023-03-05T12:40:12.328Z,71.90
2023-03-05T12:41:24.529Z,72.30
2023-03-05T12:42:51.397Z,71.10
2023-03-05T12:44:05.446Z,69.70
2023-03-05T12:45:14.517Z,71.10
2023-03-05T12:46:29.458Z,71.80
2023-03-05T12:47:31.756Z,71.80
2023-03-05T12:48:41.798Z,72.50
2023-03-05T12:49:45.619Z,72.80
2023-03-05T12:50:48.701Z,72.50
2023-03-05T12:51:56.139Z,72.00
2023-03-05T12:53:10.604Z,71.90
2023-03-05T12:54:21.921Z,72.80
2023-03-05T12:55:28.773Z,72.40
2023-03-05T12:56:33.532Z,72.50
2023-03-05T12:57:37.144Z,72.60
2023-03-05T12:58:54.397Z,72.30
2023-03-05T13:00:08.378Z,72.30
2023-03-05T13:01:28.755Z,72.50
2023-03-05T13:02:44.118Z,72.60
2023-03-05T13:04:05.241Z,74.00
2023-03-05T13:05:35.864Z,73.40
2023-03-05T13:06:39.581Z,73.00
2023-03-05T13:07:41.973Z,72.60
2023-03-05T13:08:44.550Z,72.50
2023-03-05T13:09:54.770Z,72.60
2023-03-05T13:11:05.032Z,72.80
2023-03-05T13:12:13.573Z,72.30
2023-03-05T13:13:16.498Z,73.20
2023-03-05T13:14:28.857Z,74.20
2023-03-05T13:15:32.688Z,75.00
2023-03-05T13:16:39.598Z,75.90
2023-03-05T13:17:55.904Z,76.70
2023-03-05T13:19:01.416Z,77.30
2023-03-05T13:20:31.820Z,77.50
2023-03-05T13:21:35.416Z,78.50
2023-03-05T13:22:38.982Z,79.70
2023-03-05T13:23:58.581Z,80.60
2023-03-05T13:25:16.812Z,81.10
2023-03-05T13:26:20.700Z,82.20
2023-03-05T13:27:30.885Z,83.10
2023-03-05T13:28:33.495Z,83.50
2023-03-05T13:29:35.839Z,83.80
2023-03-05T13:30:38.352Z,84.20
2023-03-05T13:31:45.524Z,84.70
2023-03-05T13:32:52.027Z,85.20
2023-03-05T13:34:08.015Z,85.60
2023-03-05T13:35:12.705Z,86.30
2023-03-05T13:36:16.240Z,86.60
2023-03-05T13:37:24.845Z,86.80
2023-03-05T13:38:43.401Z,87.30
2023-03-05T13:40:19.048Z,87.80
2023-03-05T13:41:29.374Z,88.40
2023-03-05T13:42:34.868Z,88.90
2023-03-05T13:43:58.806Z,89.70
2023-03-05T13:45:08.242Z,90.20
2023-03-05T13:46:10.722Z,90.70
2023-03-05T13:47:20.086Z,91.10
2023-03-05T13:48:22.722Z,91.20
2023-03-05T13:49:26.947Z,91.20
2023-03-05T13:50:33.448Z,91.20
2023-03-05T13:51:50.506Z,91.30
2023-03-05T13:52:53.086Z,91.10
2023-03-05T13:53:55.459Z,91.00
2023-03-05T13:54:59.500Z,91.10
2023-03-05T13:56:07.816Z,91.10
2023-03-05T13:57:34.794Z,91.20
2023-03-05T13:58:53.696Z,91.30
2023-03-05T13:59:56.010Z,91.10
2023-03-05T14:01:33.866Z,91.10
2023-03-05T14:02:36.455Z,91.20
2023-03-05T14:03:39.213Z,91.30
2023-03-05T14:04:46.375Z,91.40
2023-03-05T14:05:50.099Z,91.20
2023-03-05T14:07:06.116Z,90.90
2023-03-05T14:08:25.833Z,90.60
2023-03-05T14:09:31.497Z,90.30